createdAt,value
2023-04-04T00:02:19.130Z,68.04
2023-04-04T00:04:59.474Z,67.31
2023-04-04T00:07:39.320Z,68.37
2023-04-04T00:10:17.516Z,68.12
2023-04-04T00:12:58.775Z,70.14
2023-04-04T00:15:37.994Z,71.19
2023-04-04T00:18:13.263Z,71.19
2023-04-04T00:20:59.376Z,71.56
2023-04-04T00:23:37.598Z,72.91
2023-04-04T00:26:18.440Z,73.39
2023-04-04T00:28:59.542Z,73.42
2023-04-04T00:31:40.415Z,74.15
2023-04-04T00:34:19.720Z,73.99
2023-04-04T00:37:00.300Z,78.12
2023-04-04T00:39:38.645Z,77.40
2023-04-04T00:42:22.611Z,76.52
2023-04-04T00:45:03.323Z,76.40
2023-04-04T00:47:50.037Z,78.26
2023-04-04T00:50:34.046Z,78.51
2023-04-04T00:53:12.438Z,79.28
2023-04-04T00:55:57.002Z,77.11
2023-04-04T00:58:37.192Z,74.57
2023-04-04T01:01:18.065Z,75.52
2023-04-04T01:03:58.611Z,74.21
2023-04-04T01:06:39.252Z,74.57
2023-04-04T01:09:17.230Z,76.29
2023-04-04T01:12:04.664Z,76.52
2023-04-04T01:14:46.166Z,76.37
2023-04-04T01:17:26.116Z,75.92
2023-04-04T01:20:22.461Z,74.29
2023-04-04T01:23:04.080Z,74.59
2023-04-04T01:25:39.951Z,74.43
2023-04-04T01:28:30.552Z,75.67
2023-04-04T01:31:15.558Z,75.90
2023-04-04T01:34:24.871Z,75.98
2023-04-04T01:37:05.863Z,76.45
2023-04-04T01:40:39.946Z,76.87
2023-04-04T01:43:20.213Z,76.79
2023-04-04T01:46:00.836Z,77.78
2023-04-04T01:48:39.078Z,77.13
2023-04-04T01:51:24.110Z,76.97
2023-04-04T01:54:09.325Z,76.35
2023-04-04T01:57:01.871Z,76.46
2023-04-04T01:59:45.988Z,77.07
2023-04-04T02:02:21.234Z,76.87
2023-04-04T02:05:10.690Z,75.55
2023-04-04T02:07:57.802Z,76.19
2023-04-04T02:10:51.139Z,76.87
2023-04-04T02:13:37.316Z,75.94
2023-04-04T02:16:21.535Z,75.96
2023-04-04T02:19:04.785Z,77.34
2023-04-04T02:21:57.490Z,77.58
2023-04-04T02:24:43.221Z,78.58
2023-04-04T02:27:23.543Z,80.33
2023-04-04T02:30:10.319Z,79.82
2023-04-04T02:32:48.686Z,80.96
2023-04-04T02:35:36.703Z,80.50
2023-04-04T02:38:20.333Z,79.75
2023-04-04T02:41:09.202Z,80.21
2023-04-04T02:43:59.629Z,79.06
2023-04-04T02:46:38.918Z,77.36
2023-04-04T02:49:22.860Z,76.55
2023-04-04T02:52:06.367Z,76.24
2023-04-04T02:54:50.302Z,74.46
2023-04-04T02:57:40.827Z,75.97
2023-04-04T03:00:24.099Z,76.21
2023-04-04T03:02:59.057Z,73.46
2023-04-04T03:05:49.615Z,73.62
2023-04-04T03:08:41.329Z,74.12
2023-04-04T03:11:24.012Z,73.55
2023-04-04T03:14:11.661Z,73.73
2023-04-04T03:17:00.670Z,73.81
2023-04-04T03:19:39.842Z,74.23
2023-04-04T03:22:28.623Z,73.32
2023-04-04T03:25:07.951Z,74.31
2023-04-04T03:27:57.242Z,73.69
2023-04-04T03:30:43.014Z,73.38
2023-04-04T03:33:34.278Z,73.97
2023-04-04T03:36:22.903Z,75.19
2023-04-04T03:39:06.647Z,74.40
2023-04-04T03:41:48.209Z,76.56
2023-04-04T03:44:36.955Z,77.23
2023-04-04T03:47:31.389Z,77.08
2023-04-04T03:50:19.903Z,77.56
2023-04-04T03:53:08.427Z,79.44
2023-04-04T03:55:49.910Z,81.89
2023-04-04T03:58:35.821Z,82.92
2023-04-04T04:01:18.330Z,81.29
2023-04-04T04:04:01.289Z,80.69
2023-04-04T04:06:37.544Z,80.30
2023-04-04T04:09:29.799Z,79.66
2023-04-04T04:12:12.386Z,78.41
2023-04-04T04:14:58.477Z,79.86
2023-04-04T04:17:48.494Z,79.89
2023-04-04T04:20:37.527Z,80.37
2023-04-04T04:23:28.257Z,80.39
2023-04-04T04:26:24.405Z,80.45
2023-04-04T04:29:10.431Z,80.69
2023-04-04T04:31:48.210Z,80.84
2023-04-04T04:34:40.383Z,82.96
2023-04-04T04:37:26.914Z,82.90
2023-04-04T04:40:17.086Z,83.50
2023-04-04T04:43:06.283Z,83.07
2023-04-04T04:45:44.087Z,82.35
2023-04-04T04:48:30.226Z,82.08
2023-04-04T04:51:16.480Z,81.11
2023-04-04T04:53:59.783Z,80.54
2023-04-04T04:56:43.535Z,79.49
2023-04-04T04:59:28.465Z,78.21
2023-04-04T05:02:24.394Z,78.02
2023-04-04T05:05:13.620Z,76.42
2023-04-04T05:08:03.807Z,75.46
2023-04-04T05:10:47.110Z,74.92
2023-04-04T05:13:27.644Z,73.93
2023-04-04T05:16:15.678Z,73.78
2023-04-04T05:18:54.243Z,73.34
2023-04-04T05:21:36.694Z,72.60
2023-04-04T05:24:17.644Z,72.73
2023-04-04T05:26:58.998Z,71.03
2023-04-04T05:29:48.319Z,71.48
2023-04-04T05:32:39.677Z,71.73
2023-04-04T05:35:28.086Z,70.21
2023-04-04T05:38:14.319Z,70.45
2023-04-04T05:41:03.942Z,69.76
2023-04-04T05:43:46.772Z,69.90
2023-04-04T05:46:38.324Z,69.40
2023-04-04T05:49:34.217Z,69.70
2023-04-04T05:52:18.799Z,68.88
2023-04-04T05:55:04.105Z,65.88
2023-04-04T05:57:57.717Z,65.45
2023-04-04T06:00:54.067Z,64.96
2023-04-04T06:03:42.491Z,61.65
2023-04-04T06:06:25.208Z,62.19
2023-04-04T06:09:22.809Z,61.45
2023-04-04T06:12:07.224Z,60.56
2023-04-04T06:14:53.776Z,60.18
2023-04-04T06:17:37.183Z,61.01
2023-04-04T06:20:27.348Z,57.52
2023-04-04T06:23:05.196Z,60.12
2023-04-04T06:25:52.816Z,57.22
2023-04-04T06:28:39.164Z,57.21
2023-04-04T06:31:15.774Z,56.62
2023-04-04T06:34:01.713Z,55.70
2023-04-04T06:36:43.372Z,55.04
2023-04-04T06:39:27.356Z,52.89
2023-04-04T06:42:13.953Z,55.04
2023-04-04T06:45:01.123Z,53.32
2023-04-04T06:47:51.047Z,53.92
2023-04-04T06:50:32.153Z,52.04
2023-04-04T06:53:16.933Z,51.14
2023-04-04T06:56:03.231Z,51.87
2023-04-04T06:58:41.543Z,51.76
2023-04-04T07:01:28.042Z,53.14
2023-04-04T07:04:12.148Z,51.83
2023-04-04T07:07:01.499Z,50.57
2023-04-04T07:09:45.346Z,51.57
2023-04-04T07:12:21.960Z,50.87
2023-04-04T07:15:04.796Z,51.42
2023-04-04T07:17:41.159Z,51.67
2023-04-04T07:20:25.908Z,53.65
2023-04-04T07:23:12.321Z,51.53
2023-04-04T07:25:52.609Z,52.74
2023-04-04T07:28:27.015Z,52.70
2023-04-04T07:31:11.416Z,52.29
2023-04-04T07:33:58.048Z,53.08
2023-04-04T07:36:41.434Z,53.56
2023-04-04T07:39:24.296Z,52.48
2023-04-04T07:42:05.171Z,52.67
2023-04-04T07:44:40.399Z,52.41
2023-04-04T07:47:22.880Z,51.47
2023-04-04T07:50:03.277Z,51.13
2023-04-04T07:52:45.937Z,52.27
2023-04-04T07:55:34.910Z,51.04
2023-04-04T07:58:14.110Z,49.87
2023-04-04T08:00:57.373Z,49.76
2023-04-04T08:03:44.443Z,49.15
2023-04-04T08:06:25.380Z,48.20
2023-04-04T08:09:06.178Z,47.35
2023-04-04T08:11:50.083Z,48.31
2023-04-04T08:14:33.112Z,48.55
2023-04-04T08:17:08.318Z,49.43
2023-04-04T08:19:59.990Z,47.92
2023-04-04T08:22:54.892Z,48.28
2023-04-04T08:26:11.865Z,48.51
2023-04-04T08:28:55.803Z,47.98
2023-04-04T08:31:42.972Z,48.39
2023-04-04T08:34:26.956Z,47.52
2023-04-04T08:37:14.798Z,46.01
2023-04-04T08:40:02.493Z,45.70
2023-04-04T08:42:48.958Z,46.39
2023-04-04T08:45:30.837Z,46.88
2023-04-04T08:48:21.386Z,47.48
2023-04-04T08:51:12.296Z,47.29
2023-04-04T08:53:51.909Z,46.67
2023-04-04T08:56:35.384Z,45.85
2023-04-04T08:59:16.666Z,47.62
2023-04-04T09:02:25.584Z,44.80
2023-04-04T09:05:09.803Z,43.81
2023-04-04T09:07:48.952Z,44.33
2023-04-04T09:10:32.071Z,44.57
2023-04-04T09:13:19.461Z,44.65
2023-04-04T09:16:02.125Z,43.85
2023-04-04T09:18:48.494Z,44.29
2023-04-04T09:21:42.178Z,43.78
2023-04-04T09:24:25.741Z,41.67
2023-04-04T09:27:06.250Z,43.37
2023-04-04T09:29:46.146Z,43.00
2023-04-04T09:32:26.528Z,42.96
2023-04-04T09:35:13.107Z,41.96
2023-04-04T09:37:59.293Z,41.93
2023-04-04T09:40:43.945Z,41.18
2023-04-04T09:43:22.210Z,42.15
2023-04-04T09:46:04.168Z,43.88
2023-04-04T09:48:53.674Z,42.00
2023-04-04T09:51:42.700Z,40.69
2023-04-04T09:54:29.365Z,39.63
2023-04-04T09:57:15.780Z,40.62
2023-04-04T10:00:21.728Z,41.53
2023-04-04T10:02:59.939Z,41.24
2023-04-04T10:05:48.608Z,40.42
2023-04-04T10:08:29.607Z,40.88
2023-04-04T10:11:12.372Z,40.92
2023-04-04T10:13:56.596Z,39.46
2023-04-04T10:16:43.139Z,39.93
2023-04-04T10:19:27.044Z,40.42
2023-04-04T10:22:04.480Z,40.58
2023-04-04T10:24:56.746Z,40.04
2023-04-04T10:27:38.827Z,42.21
2023-04-04T10:30:24.200Z,40.37
2023-04-04T10:33:04.717Z,39.35
2023-04-04T10:35:54.192Z,40.40
2023-04-04T10:38:31.792Z,39.04
2023-04-04T10:41:13.933Z,39.56
2023-04-04T10:44:03.628Z,39.45
2023-04-04T10:46:51.820Z,41.99
2023-04-04T10:49:35.756Z,41.82
2023-04-04T10:52:17.459Z,39.54
2023-04-04T10:55:08.470Z,38.41
2023-04-04T10:57:55.440Z,37.33
2023-04-04T11:00:35.867Z,39.15
2023-04-04T11:03:06.349Z,38.90
2023-04-04T11:05:47.142Z,38.70
2023-04-04T11:08:33.104Z,40.04
2023-04-04T11:11:22.545Z,37.41
2023-04-04T11:14:13.384Z,39.04
2023-04-04T11:17:00.817Z,41.88
2023-04-04T11:20:07.182Z,38.66
2023-04-04T11:22:46.303Z,39.48
2023-04-04T11:25:32.846Z,37.99
2023-04-04T11:28:31.643Z,36.80
2023-04-04T11:31:54.271Z,37.50
2023-04-04T11:34:39.457Z,36.75
2023-04-04T11:37:24.340Z,38.09
2023-04-04T11:40:17.898Z,37.44
2023-04-04T11:43:09.973Z,37.38
2023-04-04T11:46:00.866Z,37.03
2023-04-04T11:48:46.236Z,37.63
2023-04-04T11:51:33.717Z,38.55
2023-04-04T11:54:25.588Z,37.29
2023-04-04T11:57:09.117Z,38.03
2023-04-04T12:00:01.974Z,37.99
2023-04-04T12:02:50.516Z,37.85
2023-04-04T12:05:29.428Z,35.68
2023-04-04T12:08:09.178Z,34.96
2023-04-04T12:10:51.574Z,34.40
2023-04-04T12:13:45.686Z,36.22
2023-04-04T12:16:35.171Z,34.90
2023-04-04T12:19:19.214Z,34.20
2023-04-04T12:22:08.686Z,36.44
2023-04-04T12:24:49.058Z,35.64
2023-04-04T12:27:39.041Z,35.21
2023-04-04T12:30:25.873Z,38.80
2023-04-04T12:33:01.662Z,35.66
2023-04-04T12:35:40.407Z,37.68
2023-04-04T12:38:23.079Z,34.77
2023-04-04T12:41:06.993Z,34.89
2023-04-04T12:43:49.779Z,35.94
2023-04-04T12:46:31.858Z,34.37
2023-04-04T12:49:22.212Z,36.27
2023-04-04T12:52:05.450Z,35.94
2023-04-04T12:54:56.189Z,35.51
2023-04-04T12:57:46.228Z,37.08
2023-04-04T13:00:27.987Z,37.57
2023-04-04T13:03:11.904Z,36.26
2023-04-04T13:05:47.119Z,36.22
2023-04-04T13:08:32.851Z,36.67
2023-04-04T13:11:19.830Z,36.36
2023-04-04T13:14:13.336Z,33.67
2023-04-04T13:17:15.567Z,36.56
2023-04-04T13:20:04.185Z,35.29
2023-04-04T13:22:53.533Z,35.40
2023-04-04T13:25:38.898Z,32.45
2023-04-04T13:28:20.340Z,33.90
2023-04-04T13:30:55.699Z,34.25
2023-04-04T13:33:42.269Z,34.60
2023-04-04T13:36:18.389Z,33.67
2023-04-04T13:39:08.062Z,35.35
2023-04-04T13:42:00.301Z,34.46
2023-04-04T13:44:38.169Z,33.57
2023-04-04T13:47:24.924Z,37.46
2023-04-04T13:50:07.184Z,34.03
2023-04-04T13:52:45.297Z,34.16
2023-04-04T13:55:33.936Z,33.87
2023-04-04T13:58:16.801Z,33.85
2023-04-04T14:01:07.478Z,36.66
2023-04-04T14:03:51.351Z,33.17
2023-04-04T14:06:34.265Z,34.34
2023-04-04T14:09:10.972Z,35.06
2023-04-04T14:12:00.772Z,35.13
2023-04-04T14:14:47.769Z,35.52
2023-04-04T14:17:25.263Z,35.13
2023-04-04T14:20:02.842Z,34.19
2023-04-04T14:22:43.689Z,34.57
2023-04-04T14:25:29.535Z,35.14
2023-04-04T14:28:13.450Z,36.34
2023-04-04T14:31:01.217Z,37.33
2023-04-04T14:33:44.656Z,36.70
2023-04-04T14:36:30.705Z,34.88
2023-04-04T14:39:14.212Z,36.17
2023-04-04T14:42:00.805Z,35.17
2023-04-04T14:44:44.521Z,34.72
2023-04-04T14:47:33.849Z,35.01
2023-04-04T14:50:19.765Z,34.23
2023-04-04T14:53:05.012Z,35.89
2023-04-04T14:55:53.278Z,33.33
2023-04-04T14:58:39.544Z,33.86
2023-04-04T15:01:23.037Z,36.69
2023-04-04T15:04:11.991Z,34.26
2023-04-04T15:06:54.255Z,34.18
2023-04-04T15:09:38.360Z,34.61
2023-04-04T15:12:22.283Z,33.36
2023-04-04T15:15:13.366Z,34.96
2023-04-04T15:18:05.170Z,33.79
2023-04-04T15:20:51.610Z,33.48
2023-04-04T15:23:32.477Z,34.50
2023-04-04T15:26:07.097Z,33.80
2023-04-04T15:28:47.726Z,34.61
2023-04-04T15:31:28.231Z,34.50
2023-04-04T15:34:21.918Z,35.13
2023-04-04T15:37:06.637Z,34.72
2023-04-04T15:39:53.990Z,33.40
2023-04-04T15:42:31.858Z,33.30
2023-04-04T15:45:19.483Z,34.46
2023-04-04T15:48:04.839Z,34.66
2023-04-04T15:50:51.808Z,34.67
2023-04-04T15:53:38.787Z,35.34
2023-04-04T15:56:24.776Z,36.39
2023-04-04T15:59:10.963Z,35.93
2023-04-04T16:01:52.894Z,38.13
2023-04-04T16:04:28.797Z,36.31
2023-04-04T16:07:06.974Z,37.25
2023-04-04T16:09:44.328Z,37.67
2023-04-04T16:12:27.982Z,37.49
2023-04-04T16:15:12.611Z,38.73
2023-04-04T16:17:56.211Z,38.66
2023-04-04T16:20:42.702Z,39.71
2023-04-04T16:23:26.247Z,40.82
2023-04-04T16:26:12.204Z,41.82
2023-04-04T16:28:50.374Z,41.19
2023-04-04T16:31:49.890Z,41.31
2023-04-04T16:34:31.792Z,41.90
2023-04-04T16:37:19.276Z,42.59
2023-04-04T16:40:01.273Z,41.68
2023-04-04T16:42:42.158Z,41.46
2023-04-04T16:45:20.154Z,41.43
2023-04-04T16:48:07.488Z,42.27
2023-04-04T16:50:48.094Z,41.96
2023-04-04T16:53:26.572Z,42.01
2023-04-04T16:56:06.785Z,43.04
2023-04-04T16:58:50.667Z,42.20
2023-04-04T17:01:31.763Z,42.69
2023-04-04T17:04:18.453Z,42.80
2023-04-04T17:06:54.726Z,42.58
2023-04-04T17:09:38.745Z,43.01
2023-04-04T17:12:20.706Z,44.24
2023-04-04T17:14:55.216Z,45.00
2023-04-04T17:17:36.084Z,44.41
2023-04-04T17:20:20.184Z,44.43
2023-04-04T17:22:58.574Z,44.80
2023-04-04T17:25:42.231Z,45.47
2023-04-04T17:28:24.902Z,45.75
2023-04-04T17:31:05.311Z,44.25
2023-04-04T17:33:54.066Z,45.08
2023-04-04T17:36:38.448Z,45.36
2023-04-04T17:39:17.863Z,46.21
2023-04-04T17:42:03.911Z,46.08
2023-04-04T17:44:44.395Z,45.98
2023-04-04T17:47:19.662Z,46.82
2023-04-04T17:49:59.729Z,47.30
2023-04-04T17:52:45.820Z,47.20
2023-04-04T17:55:34.496Z,47.36
2023-04-04T17:58:12.173Z,47.26
2023-04-04T18:00:54.822Z,46.82
2023-04-04T18:03:36.781Z,47.46
2023-04-04T18:06:11.760Z,47.48
2023-04-04T18:08:50.612Z,47.77
2023-04-04T18:11:37.082Z,47.61
2023-04-04T18:14:17.819Z,48.03
2023-04-04T18:17:04.658Z,48.36
2023-04-04T18:19:49.591Z,48.83
2023-04-04T18:22:25.070Z,48.48
2023-04-04T18:25:21.685Z,48.88
2023-04-04T18:28:13.089Z,48.18
2023-04-04T18:30:53.689Z,48.49
2023-04-04T18:33:32.950Z,49.63
2023-04-04T18:36:17.050Z,49.95
2023-04-04T18:39:03.121Z,49.72
2023-04-04T18:41:43.000Z,49.62
2023-04-04T18:44:23.821Z,49.89
2023-04-04T18:47:09.937Z,50.39
2023-04-04T18:49:48.187Z,50.69
2023-04-04T18:52:34.647Z,50.42
2023-04-04T18:55:21.568Z,50.61
2023-04-04T18:58:04.949Z,51.96
2023-04-04T19:00:48.266Z,51.36
2023-04-04T19:07:02.702Z,51.10
2023-04-04T19:09:46.234Z,51.27
2023-04-04T19:12:29.244Z,51.34
2023-04-04T19:15:07.853Z,51.03
2023-04-04T19:17:55.150Z,51.75
2023-04-04T19:20:42.156Z,51.90
2023-04-04T19:23:26.259Z,52.95
2023-04-04T19:26:10.573Z,52.48
2023-04-04T19:28:49.125Z,53.25
2023-04-04T19:31:36.132Z,54.29
2023-04-04T19:34:17.840Z,54.75
2023-04-04T19:37:01.182Z,55.19
2023-04-04T19:39:50.530Z,56.18
2023-04-04T19:42:40.087Z,56.27
2023-04-04T19:45:20.879Z,57.09
2023-04-04T19:47:57.244Z,56.40
2023-04-04T19:50:47.662Z,55.91
2023-04-04T19:53:34.890Z,56.12
2023-04-04T19:56:17.177Z,55.55
2023-04-04T19:59:10.878Z,55.66
2023-04-04T20:02:00.855Z,55.36
2023-04-04T20:04:42.162Z,54.77
2023-04-04T20:07:25.097Z,54.67
2023-04-04T20:10:17.772Z,54.61
2023-04-04T20:13:08.595Z,54.52
2023-04-04T20:16:02.017Z,55.39
2023-04-04T20:18:47.588Z,54.10
2023-04-04T20:21:29.747Z,53.60
2023-04-04T20:24:14.093Z,53.81
2023-04-04T20:27:02.815Z,54.90
2023-04-04T20:29:44.555Z,53.86
2023-04-04T20:32:31.083Z,54.06
2023-04-04T20:35:17.231Z,54.27
2023-04-04T20:37:58.333Z,53.55
2023-04-04T20:40:47.765Z,54.02
2023-04-04T20:43:39.323Z,53.63
2023-04-04T20:46:26.687Z,53.62
2023-04-04T20:49:06.888Z,53.55
2023-04-04T20:51:48.027Z,54.29
2023-04-04T20:54:32.213Z,55.15
2023-04-04T20:57:14.475Z,53.85
2023-04-04T20:59:56.754Z,55.07
2023-04-04T21:02:45.087Z,54.33
2023-04-04T21:05:39.503Z,54.56
2023-04-04T21:08:37.189Z,54.78
2023-04-04T21:11:19.287Z,56.13
2023-04-04T21:14:15.876Z,56.53
2023-04-04T21:17:05.336Z,57.50
2023-04-04T21:19:52.737Z,59.12
2023-04-04T21:22:35.725Z,59.63
2023-04-04T21:25:43.596Z,60.21
2023-04-04T21:28:24.317Z,61.07
2023-04-04T21:31:08.702Z,62.74
2023-04-04T21:33:47.351Z,63.25
2023-04-04T21:36:37.514Z,64.26
2023-04-04T21:39:39.148Z,66.19
2023-04-04T21:42:19.886Z,68.15
2023-04-04T21:45:05.566Z,69.25
2023-04-04T21:47:49.073Z,69.25
2023-04-04T21:50:30.879Z,68.42
2023-04-04T21:53:08.801Z,68.52
2023-04-04T21:55:48.978Z,68.84
2023-04-04T21:58:36.288Z,69.69
2023-04-04T22:01:16.844Z,70.21
2023-04-04T22:03:54.911Z,71.66
2023-04-04T22:06:44.077Z,72.52
2023-04-04T22:09:25.850Z,72.74
2023-04-04T22:12:16.115Z,73.15
2023-04-04T22:15:02.429Z,73.96
2023-04-04T22:17:40.252Z,74.88
2023-04-04T22:20:23.959Z,74.48
2023-04-04T22:23:07.705Z,75.84
2023-04-04T22:25:51.398Z,72.75
2023-04-04T22:28:34.074Z,72.68
2023-04-04T22:31:11.771Z,71.09
2023-04-04T22:33:53.800Z,69.94
2023-04-04T22:36:40.298Z,69.96
2023-04-04T22:39:26.101Z,69.12
2023-04-04T22:42:06.828Z,69.74
2023-04-04T22:44:50.059Z,70.32
2023-04-04T22:47:29.547Z,70.32
2023-04-04T22:50:11.471Z,71.03
2023-04-04T22:52:46.877Z,71.77
2023-04-04T22:55:36.328Z,72.40
2023-04-04T22:58:29.242Z,71.67
2023-04-04T23:01:12.722Z,71.96
2023-04-04T23:03:48.800Z,72.27
2023-04-04T23:06:29.213Z,71.65
2023-04-04T23:09:15.381Z,71.88
2023-04-04T23:11:53.767Z,71.83
2023-04-04T23:14:39.095Z,72.69
2023-04-04T23:17:34.761Z,73.90
2023-04-04T23:20:15.330Z,74.47
2023-04-04T23:23:04.805Z,75.41
2023-04-04T23:25:44.760Z,76.20
2023-04-04T23:28:28.753Z,78.16
2023-04-04T23:31:14.966Z,81.50
2023-04-04T23:33:50.361Z,83.36
2023-04-04T23:36:35.289Z,83.20
2023-04-04T23:39:25.957Z,82.93
2023-04-04T23:42:04.524Z,84.73
2023-04-04T23:44:51.440Z,82.05
2023-04-04T23:47:28.229Z,80.51
2023-04-04T23:50:08.891Z,79.36
2023-04-04T23:52:52.921Z,78.69
2023-04-04T23:55:35.860Z,78.12
2023-04-04T23:58:19.198Z,78.89
